Time;durP1;ratioP1;P1;durP2;ratioP2;P2;SDS_P1;SDS_P2;PMS_P1;PMS_P2;Temp;Humidity;BMP_temperature;BMP_pressure;BME280_temperature;BME280_humidity;BME280_pressure;Samples;Min_cycle;Max_cycle;Signal;HPM_P1;HPM_P2
2022/11/11 00:00:15;;;;;;;6.07;3.83;;;;;;;8.22;84.79;102783.50;5027497;28;20091;-77
2022/11/11 00:02:41;;;;;;;7.80;3.67;;;;;;;8.22;84.76;102788.69;5029845;28;20033;-77
2022/11/11 00:05:06;;;;;;;8.82;4.00;;;;;;;8.23;84.61;102782.66;5027828;28;20026;-77
2022/11/11 00:07:31;;;;;;;10.73;4.20;;;;;;;8.23;84.80;102780.06;5029585;28;20805;-77
2022/11/11 00:09:57;;;;;;;9.57;3.85;;;;;;;8.22;84.56;102778.31;5025378;28;20076;-77
2022/11/11 00:12:22;;;;;;;5.50;3.70;;;;;;;8.24;84.58;102771.44;5028448;28;20041;-76
2022/11/11 00:14:47;;;;;;;8.90;3.97;;;;;;;8.24;84.82;102770.59;5027846;28;20533;-76
2022/11/11 00:25:24;;;;;;;10.00;4.78;;;;;;;8.34;84.71;102768.16;5027270;28;20128;-76
2022/11/11 00:27:50;;;;;;;9.48;4.80;;;;;;;8.34;85.21;102781.13;5027358;28;20107;-77
2022/11/11 00:30:16;;;;;;;9.68;4.38;;;;;;;8.38;85.15;102779.44;5025947;28;20029;-76
2022/11/11 00:32:41;;;;;;;8.27;4.72;;;;;;;8.42;85.13;102788.13;5025404;28;20154;-77
2022/11/11 00:37:51;;;;;;;8.10;5.00;;;;;;;8.46;85.37;102790.78;5028755;28;20048;-77
2022/11/11 00:40:17;;;;;;;9.13;4.78;;;;;;;8.50;85.20;102807.31;5025979;28;20021;-76
2022/11/11 00:42:42;;;;;;;9.85;5.00;;;;;;;8.53;85.36;102798.69;5028345;28;20033;-76
2022/11/11 00:45:08;;;;;;;8.88;5.45;;;;;;;8.53;85.52;102794.41;5028285;28;20036;-77
2022/11/11 00:51:03;;;;;;;10.73;5.50;;;;;;;8.58;85.47;102804.84;5026159;28;20404;-76
2022/11/11 00:53:12;;;;;;;9.75;5.28;;;;;;;8.60;85.47;102801.41;5019656;28;20040;-77
2022/11/11 00:55:38;;;;;;;9.18;5.47;;;;;;;8.61;85.64;102805.75;5027503;28;20029;-77
2022/11/11 00:58:03;;;;;;;10.60;5.70;;;;;;;8.62;85.31;102794.50;5026874;28;20107;-77
2022/11/11 01:00:29;;;;;;;8.52;5.50;;;;;;;8.64;85.38;102804.91;5008100;28;20072;-76
2022/11/11 01:02:55;;;;;;;9.55;6.18;;;;;;;8.63;85.38;102814.41;5026965;28;20029;-76
2022/11/11 01:05:21;;;;;;;10.90;6.30;;;;;;;8.63;85.69;102821.31;5028216;28;20036;-77
2022/11/11 01:07:48;;;;;;;10.35;6.30;;;;;;;8.63;85.80;102816.13;5027979;28;20033;-76
2022/11/11 01:10:36;;;;;;;11.40;6.22;;;;;;;8.64;85.94;102821.34;5026991;28;20034;-76
2022/11/11 01:13:10;;;;;;;10.60;5.97;;;;;;;8.67;85.92;102830.03;5027103;28;20053;-77
2022/11/11 01:15:36;;;;;;;9.10;6.10;;;;;;;8.69;85.80;102823.16;5027209;28;20064;-77
2022/11/11 01:18:01;;;;;;;11.32;6.18;;;;;;;8.70;85.68;102822.31;5028891;28;20064;-77
2022/11/11 01:20:26;;;;;;;12.60;6.32;;;;;;;8.71;85.67;102824.06;5031516;28;20121;-77
2022/11/11 01:22:52;;;;;;;10.43;6.22;;;;;;;8.72;85.90;102825.75;5029917;28;20084;-77
2022/11/11 01:25:17;;;;;;;14.82;6.47;;;;;;;8.71;85.95;102814.53;5029764;28;20067;-78
2022/11/11 01:27:42;;;;;;;11.63;5.90;;;;;;;8.73;85.82;102812.84;5027152;28;20071;-76
2022/11/11 01:30:08;;;;;;;13.30;6.70;;;;;;;8.73;86.02;102818.03;5031764;28;20397;-77
2022/11/11 01:32:33;;;;;;;10.82;7.00;;;;;;;8.74;86.03;102813.69;5017955;28;20034;-76
2022/11/11 01:34:58;;;;;;;11.60;6.75;;;;;;;8.75;85.85;102805.94;5030604;28;20040;-76
2022/11/11 01:37:23;;;;;;;11.63;7.25;;;;;;;8.75;86.10;102807.66;5030132;28;20420;-76
2022/11/11 01:39:49;;;;;;;12.82;7.50;;;;;;;8.75;86.12;102800.75;5027381;28;20088;-76
2022/11/11 01:42:14;;;;;;;11.57;7.20;;;;;;;8.74;86.23;102795.53;5025078;28;20032;-76
2022/11/11 01:44:48;;;;;;;13.35;7.30;;;;;;;8.74;86.46;102795.53;5028233;28;20033;-76
2022/11/11 01:47:15;;;;;;;12.98;7.40;;;;;;;8.74;86.52;102792.94;5029891;28;20033;-76
2022/11/11 01:49:49;;;;;;;10.23;6.68;;;;;;;8.73;86.42;102789.47;5009783;28;20452;-77
2022/11/11 01:52:37;;;;;;;12.27;7.13;;;;;;;8.74;86.76;102792.94;5031708;28;20025;-77
2022/11/11 01:55:09;;;;;;;11.35;7.30;;;;;;;8.73;86.92;102788.59;5033205;28;20072;-77
2022/11/11 01:57:40;;;;;;;12.57;6.88;;;;;;;8.75;86.57;102794.66;5032243;28;20544;-77
2022/11/11 02:00:09;;;;;;;13.13;7.75;;;;;;;8.74;86.89;102792.94;5030384;28;20158;-77
2022/11/11 02:02:42;;;;;;;12.82;6.97;;;;;;;8.74;86.71;102788.63;5033042;28;20060;-76
2022/11/11 02:08:01;;;;;;;12.18;7.35;;;;;;;8.73;87.02;102781.69;5026323;28;20067;-76
2022/11/11 02:10:29;;;;;;;11.77;7.25;;;;;;;8.72;86.89;102782.53;5006144;28;20044;-76
2022/11/11 02:15:38;;;;;;;12.35;6.97;;;;;;;8.75;86.51;102774.81;5032173;28;20494;-77
2022/11/11 02:18:04;;;;;;;11.82;7.28;;;;;;;8.75;86.80;102764.41;5030709;28;20029;-76
2022/11/11 02:20:33;;;;;;;14.18;7.25;;;;;;;8.74;86.76;102748.81;5026883;28;20029;-77
2022/11/11 02:23:05;;;;;;;13.20;7.53;;;;;;;8.72;87.04;102760.91;5032866;28;20144;-76
2022/11/11 02:25:32;;;;;;;12.38;6.90;;;;;;;8.71;86.95;102759.19;5030614;28;20060;-76
2022/11/11 02:28:02;;;;;;;13.63;7.22;;;;;;;8.69;87.29;102758.28;5026264;28;20526;-76
2022/11/11 02:30:27;;;;;;;13.45;8.20;;;;;;;8.69;87.07;102759.13;5028263;28;20097;-77
2022/11/11 02:32:53;;;;;;;12.80;7.35;;;;;;;8.70;87.30;102770.41;5027072;28;20112;-76
2022/11/11 02:35:23;;;;;;;14.20;7.80;;;;;;;8.70;87.37;102770.41;5031701;28;20033;-76
2022/11/11 02:37:51;;;;;;;13.85;7.03;;;;;;;8.71;87.13;102783.38;5034912;28;20063;-76
2022/11/11 02:40:18;;;;;;;11.68;7.10;;;;;;;8.72;87.05;102777.34;5025721;28;20096;-76
2022/11/11 02:42:43;;;;;;;13.45;6.90;;;;;;;8.74;86.92;102773.06;5033735;28;20099;-76
2022/11/11 02:45:09;;;;;;;11.90;6.78;;;;;;;8.73;86.91;102773.91;5032318;28;20037;-76
2022/11/11 02:47:35;;;;;;;12.88;7.30;;;;;;;8.73;86.91;102771.31;5033761;28;20112;-76
2022/11/11 02:50:00;;;;;;;14.13;7.78;;;;;;;8.71;87.12;102765.22;5015392;28;20556;-77
2022/11/11 02:52:26;;;;;;;12.45;7.32;;;;;;;8.71;87.16;102761.78;5028354;28;20026;-77
2022/11/11 02:54:51;;;;;;;14.32;7.53;;;;;;;8.70;87.05;102754.84;5030598;28;20022;-76
2022/11/11 02:57:16;;;;;;;13.10;7.50;;;;;;;8.70;87.16;102757.44;5032835;28;20354;-76
2022/11/11 02:59:42;;;;;;;13.65;6.93;;;;;;;8.69;87.63;102753.09;5033104;28;20026;-76
2022/11/11 03:02:07;;;;;;;13.38;6.90;;;;;;;8.69;87.40;102761.72;5027770;28;20022;-76
2022/11/11 03:04:33;;;;;;;12.32;6.70;;;;;;;8.69;87.17;102768.66;5029631;28;20029;-76
2022/11/11 03:06:59;;;;;;;14.15;7.25;;;;;;;8.69;87.59;102764.31;5018610;28;20030;-76
2022/11/11 03:09:25;;;;;;;11.52;6.85;;;;;;;8.70;87.30;102765.22;5014589;28;20038;-76
2022/11/11 03:11:50;;;;;;;12.70;6.70;;;;;;;8.70;87.31;102773.00;5023864;28;20478;-76
2022/11/11 03:14:15;;;;;;;12.13;6.93;;;;;;;8.70;86.94;102771.25;5019636;28;20076;-77
2022/11/11 03:19:25;;;;;;;10.27;6.28;;;;;;;8.68;86.87;102767.78;5032605;28;20035;-76
2022/11/11 03:21:50;;;;;;;11.70;7.05;;;;;;;8.67;87.19;102770.38;5030792;28;20104;-76
2022/11/11 03:24:15;;;;;;;11.52;6.68;;;;;;;8.67;87.05;102780.75;5026713;28;20025;-76
2022/11/11 03:26:40;;;;;;;10.80;6.88;;;;;;;8.65;87.10;102779.00;5021998;28;20029;-76
2022/11/11 03:29:06;;;;;;;10.98;6.38;;;;;;;8.65;86.92;102772.91;5015146;28;20025;-76
2022/11/11 03:31:31;;;;;;;11.05;6.80;;;;;;;8.65;87.01;102771.22;5023396;28;20033;-76
2022/11/11 03:34:16;;;;;;;11.35;6.43;;;;;;;8.63;86.84;102770.31;5020870;28;20030;-76
2022/11/11 03:39:29;;;;;;;11.02;5.93;;;;;;;8.62;86.87;102768.56;5029491;28;20452;-76
2022/11/11 03:41:56;;;;;;;10.27;5.95;;;;;;;8.59;87.03;102768.53;5018236;28;20034;-76
2022/11/11 03:44:21;;;;;;;12.63;6.22;;;;;;;8.60;87.26;102772.88;5019828;28;20029;-76
2022/11/11 03:46:46;;;;;;;11.30;6.28;;;;;;;8.60;87.22;102766.81;5017286;28;20087;-76
2022/11/11 03:49:12;;;;;;;9.95;6.03;;;;;;;8.59;87.13;102768.53;5031427;28;20029;-76
2022/11/11 03:51:37;;;;;;;10.93;6.30;;;;;;;8.59;87.03;102760.75;5028544;28;20041;-77
2022/11/11 03:54:02;;;;;;;12.50;6.22;;;;;;;8.57;87.16;102764.19;5017364;28;20461;-77
2022/11/11 03:56:27;;;;;;;10.95;6.50;;;;;;;8.55;87.20;102761.53;5031344;28;20037;-77
2022/11/11 03:58:53;;;;;;;9.63;6.05;;;;;;;8.52;87.41;102761.53;5030207;28;20040;-76
2022/11/11 04:12:22;;;;;;;11.40;6.38;;;;;;;8.45;87.62;102775.22;5014201;28;20057;-76
2022/11/11 04:17:31;;;;;;;11.35;6.80;;;;;;;8.39;87.85;102783.78;5021837;28;20080;-77
2022/11/11 04:22:43;;;;;;;10.18;6.20;;;;;;;8.38;88.00;102779.44;5029757;28;20052;-76
2022/11/11 04:29:27;;;;;;;11.07;6.53;;;;;;;8.38;87.98;102788.94;5030472;28;20051;-77
2022/11/11 04:30:41;;;;;;;10.30;5.75;;;;;;;8.37;87.81;102792.41;5026983;28;20404;-77
2022/11/11 04:33:07;;;;;;;11.10;6.18;;;;;;;8.37;87.76;102788.06;5020483;28;20052;-76
2022/11/11 04:35:33;;;;;;;10.32;6.90;;;;;;;8.37;87.86;102784.63;5020170;28;20029;-77
2022/11/11 04:43:26;;;;;;;11.90;6.55;;;;;;;8.32;87.97;102794.91;5029256;28;20107;-76
2022/11/11 04:45:51;;;;;;;10.77;6.22;;;;;;;8.33;87.82;102787.16;5030380;28;20160;-76
2022/11/11 04:48:17;;;;;;;11.48;6.40;;;;;;;8.32;87.88;102785.41;5031934;28;20025;-76
2022/11/11 04:50:43;;;;;;;10.93;6.50;;;;;;;8.31;87.98;102782.78;5023600;28;20391;-76
2022/11/11 04:53:11;;;;;;;11.48;6.85;;;;;;;8.32;88.00;102779.34;5031892;28;20587;-76
2022/11/11 04:58:23;;;;;;;11.98;6.60;;;;;;;8.28;87.85;102781.03;5029615;28;20186;-76
2022/11/11 05:00:49;;;;;;;11.02;6.28;;;;;;;8.27;87.76;102779.28;5027365;28;20108;-77
2022/11/11 05:03:17;;;;;;;10.63;6.03;;;;;;;8.28;87.99;102783.63;5030264;28;20433;-76
2022/11/11 05:08:56;;;;;;;9.95;5.35;;;;;;;8.27;87.98;102781.00;5029098;28;20144;-77
2022/11/11 05:11:30;;;;;;;9.57;5.68;;;;;;;8.26;87.96;102785.31;5023685;28;20439;-77
2022/11/11 05:22:24;;;;;;;10.38;6.00;;;;;;;8.16;86.88;102788.63;5020597;28;20044;-76
2022/11/11 05:27:34;;;;;;;11.07;6.53;;;;;;;8.09;86.57;102786.75;5027016;28;20401;-77
2022/11/11 05:29:59;;;;;;;11.43;6.55;;;;;;;8.04;86.69;102784.97;5031534;28;20112;-76
2022/11/11 05:32:25;;;;;;;10.30;6.47;;;;;;;7.99;86.46;102786.63;5026438;28;20144;-76
2022/11/11 05:34:51;;;;;;;11.10;6.60;;;;;;;7.96;86.38;102790.88;5024009;28;20029;-76
2022/11/11 05:37:17;;;;;;;11.30;7.10;;;;;;;7.90;86.71;102786.47;5019482;28;20021;-77
2022/11/11 05:39:42;;;;;;;8.75;5.53;;;;;;;7.88;86.46;102782.97;5015229;28;20485;-76
2022/11/11 05:42:08;;;;;;;9.98;6.20;;;;;;;7.84;86.21;102784.63;5023830;28;20021;-76
2022/11/11 05:44:34;;;;;;;11.35;7.05;;;;;;;7.81;86.50;102791.50;5025287;28;20025;-76
2022/11/11 05:46:59;;;;;;;13.38;6.90;;;;;;;7.79;86.32;102793.19;5016539;28;20095;-76
2022/11/11 05:49:25;;;;;;;13.07;7.55;;;;;;;7.74;86.56;102796.56;4995479;28;20022;-76
2022/11/11 05:51:52;;;;;;;12.18;7.00;;;;;;;7.71;86.24;102787.88;5013664;28;20484;-76
2022/11/11 05:54:17;;;;;;;14.90;7.00;;;;;;;7.66;86.41;102792.97;5022769;28;20021;-76
2022/11/11 05:56:43;;;;;;;11.45;6.57;;;;;;;7.63;86.36;102787.72;5022157;28;20052;-77
2022/11/11 05:59:09;;;;;;;12.25;6.78;;;;;;;7.59;85.97;102794.59;5025933;28;20053;-76
2022/11/11 06:01:36;;;;;;;13.13;7.35;;;;;;;7.56;86.47;102797.13;5026424;28;20492;-76
2022/11/11 06:04:02;;;;;;;13.25;7.32;;;;;;;7.52;86.63;102804.78;5030339;28;20018;-77
2022/11/11 06:06:27;;;;;;;12.38;7.55;;;;;;;7.50;86.66;102806.50;5027458;28;20442;-76
2022/11/11 06:08:53;;;;;;;15.13;7.90;;;;;;;7.42;86.63;102809.78;5028232;28;20025;-77
2022/11/11 06:11:18;;;;;;;13.13;7.43;;;;;;;7.39;86.69;102814.91;5006837;28;20014;-76
2022/11/11 06:13:43;;;;;;;12.85;7.95;;;;;;;7.35;86.70;102813.09;5022532;28;20128;-76
2022/11/11 06:16:08;;;;;;;13.60;7.75;;;;;;;7.31;86.75;102813.00;5024727;28;20058;-76
2022/11/11 06:18:34;;;;;;;12.30;6.97;;;;;;;7.25;86.73;102813.78;5022747;28;20081;-76
2022/11/11 06:20:59;;;;;;;14.15;8.10;;;;;;;7.18;86.99;102814.47;5019969;28;20029;-77
2022/11/11 06:23:27;;;;;;;13.88;7.70;;;;;;;7.13;87.14;102806.63;5023725;28;20052;-77
2022/11/11 06:26:11;;;;;;;13.90;8.30;;;;;;;7.07;87.02;102811.69;5019621;28;20079;-76
2022/11/11 06:28:37;;;;;;;13.07;7.80;;;;;;;7.01;87.10;102812.41;5020937;28;20041;-77
2022/11/11 06:31:03;;;;;;;12.93;7.53;;;;;;;6.99;87.21;102819.28;5025767;28;20112;-77
2022/11/11 06:33:29;;;;;;;14.48;7.85;;;;;;;6.95;87.53;102825.25;5021981;28;20097;-76
2022/11/11 06:35:54;;;;;;;14.25;7.80;;;;;;;6.93;87.25;102834.69;5029037;28;20021;-77
2022/11/11 06:38:20;;;;;;;14.32;8.20;;;;;;;6.92;87.45;102840.69;5016965;28;20029;-76
2022/11/11 06:40:45;;;;;;;14.23;7.78;;;;;;;6.89;87.52;102848.38;5025143;28;20034;-77
2022/11/11 06:43:11;;;;;;;14.82;8.38;;;;;;;6.89;87.91;102850.97;5020459;28;20084;-77
2022/11/11 06:45:36;;;;;;;14.77;7.35;;;;;;;6.87;87.95;102847.47;5024875;28;20029;-76
2022/11/11 06:48:03;;;;;;;14.82;7.78;;;;;;;6.85;87.56;102842.28;5023164;28;20028;-77
2022/11/11 06:50:28;;;;;;;13.07;7.22;;;;;;;6.82;88.21;102843.09;5026331;28;20117;-77
2022/11/11 06:52:54;;;;;;;13.32;7.70;;;;;;;6.78;87.49;102841.28;5031884;28;20124;-76
2022/11/11 06:55:19;;;;;;;14.05;7.10;;;;;;;6.75;87.90;102845.47;5033810;28;20056;-77
2022/11/11 06:57:45;;;;;;;12.85;6.90;;;;;;;6.71;87.65;102844.53;5034304;28;20040;-76
2022/11/11 07:00:11;;;;;;;11.82;7.22;;;;;;;6.66;87.75;102848.75;5031318;28;20029;-76
2022/11/11 07:02:36;;;;;;;11.95;6.88;;;;;;;6.62;87.90;102849.53;5029438;28;20042;-76
2022/11/11 07:05:02;;;;;;;11.27;6.78;;;;;;;6.60;87.67;102851.19;5034987;28;20031;-76
2022/11/11 07:07:27;;;;;;;13.02;7.35;;;;;;;6.56;88.00;102837.31;5034504;28;20025;-77
2022/11/11 07:09:54;;;;;;;11.50;6.63;;;;;;;6.54;88.18;102844.16;5032964;28;20056;-76
2022/11/11 07:12:20;;;;;;;11.55;6.43;;;;;;;6.53;87.82;102851.03;5033578;28;20051;-76
2022/11/11 07:14:46;;;;;;;12.05;6.63;;;;;;;6.50;87.96;102844.94;5029908;28;20033;-76
2022/11/11 07:17:11;;;;;;;12.65;7.00;;;;;;;6.46;88.48;102846.56;5031754;28;20025;-76
2022/11/11 07:19:36;;;;;;;13.88;6.93;;;;;;;6.44;88.72;102845.66;5028749;28;20370;-76
2022/11/11 07:22:02;;;;;;;13.88;6.93;;;;;;;6.43;88.30;102849.09;5026222;28;20025;-76
2022/11/11 07:24:27;;;;;;;14.25;7.53;;;;;;;6.42;88.69;102844.75;5034172;28;20388;-76
2022/11/11 07:26:52;;;;;;;13.07;6.85;;;;;;;6.42;88.64;102849.91;5032662;28;20083;-76
2022/11/11 07:29:18;;;;;;;10.65;6.65;;;;;;;6.42;89.02;102854.19;5028042;28;20096;-76
2022/11/11 07:31:43;;;;;;;13.18;7.03;;;;;;;6.42;89.04;102862.84;5030830;28;20029;-77
2022/11/11 07:34:09;;;;;;;13.38;6.07;;;;;;;6.44;88.70;102875.78;5033135;28;20036;-77
2022/11/11 07:36:34;;;;;;;9.85;5.32;;;;;;;6.46;88.79;102875.03;5015817;28;20029;-76
2022/11/11 07:38:59;;;;;;;13.20;5.80;;;;;;;6.47;88.87;102871.59;5030667;28;20023;-77
2022/11/11 07:41:24;;;;;;;9.73;5.63;;;;;;;6.48;88.78;102873.34;5029604;28;20049;-76
2022/11/11 07:43:50;;;;;;;10.15;5.70;;;;;;;6.47;88.76;102876.78;5033116;28;20032;-76
2022/11/11 07:46:15;;;;;;;12.05;6.45;;;;;;;6.49;88.53;102882.81;5035739;28;20104;-77
2022/11/11 07:48:41;;;;;;;10.23;5.50;;;;;;;6.50;88.49;102876.81;5033318;28;20037;-77
2022/11/11 07:51:06;;;;;;;10.88;5.55;;;;;;;6.48;88.77;102878.53;5021103;28;20029;-77
2022/11/11 07:53:31;;;;;;;9.77;4.85;;;;;;;6.51;88.55;102885.47;5034378;28;20112;-76
2022/11/11 07:55:56;;;;;;;9.75;5.45;;;;;;;6.52;88.56;102889.81;5026542;28;20032;-77
2022/11/11 07:58:22;;;;;;;8.02;4.55;;;;;;;6.52;88.85;102889.81;5034488;28;20036;-76
2022/11/11 08:00:47;;;;;;;8.50;4.90;;;;;;;6.57;88.61;102892.50;5032857;28;20026;-76
2022/11/11 08:03:12;;;;;;;9.05;4.68;;;;;;;6.60;88.54;102897.75;5033301;28;20033;-76
2022/11/11 08:05:38;;;;;;;8.10;4.50;;;;;;;6.63;88.65;102903.00;5030171;28;20091;-76
2022/11/11 08:08:05;;;;;;;8.20;4.57;;;;;;;6.64;88.61;102900.44;5014434;28;20036;-76
2022/11/11 08:10:30;;;;;;;7.55;4.35;;;;;;;6.68;88.47;102916.88;5032189;28;20088;-76
2022/11/11 08:15:40;;;;;;;6.72;3.83;;;;;;;6.72;88.47;102921.31;5030417;28;20045;-76
2022/11/11 08:18:06;;;;;;;7.93;4.30;;;;;;;6.77;88.55;102930.06;5014362;28;20025;-76
2022/11/11 08:20:31;;;;;;;7.10;4.00;;;;;;;6.80;88.02;102927.56;5005879;28;20074;-76
2022/11/11 08:22:58;;;;;;;7.05;4.22;;;;;;;6.84;88.22;102933.66;5033141;28;20095;-77
2022/11/11 08:25:23;;;;;;;8.60;4.03;;;;;;;6.84;88.04;102929.34;5013991;28;20507;-76
2022/11/11 08:27:55;;;;;;;8.15;3.97;;;;;;;6.89;88.19;102931.19;5012544;28;20029;-77
2022/11/11 08:30:20;;;;;;;6.50;3.67;;;;;;;6.91;88.14;102939.84;5033674;28;20029;-76
2022/11/11 08:32:45;;;;;;;5.90;3.70;;;;;;;6.94;88.02;102934.75;5031920;28;20369;-76
2022/11/11 08:35:11;;;;;;;5.97;3.20;;;;;;;6.96;88.29;102944.28;5032844;28;20025;-76
2022/11/11 08:37:36;;;;;;;6.50;3.60;;;;;;;6.98;87.79;102947.81;5032793;28;20037;-76
2022/11/11 08:40:01;;;;;;;5.85;3.47;;;;;;;7.00;87.93;102940.09;5031824;28;20029;-76
2022/11/11 08:42:27;;;;;;;6.60;3.65;;;;;;;7.01;87.73;102943.53;5031182;28;20040;-76
2022/11/11 08:44:52;;;;;;;5.68;3.20;;;;;;;7.04;88.02;102949.66;5028203;28;20535;-76
2022/11/11 08:47:19;;;;;;;7.72;3.67;;;;;;;7.06;87.65;102955.75;5025267;28;20370;-76
2022/11/11 08:49:44;;;;;;;4.75;3.03;;;;;;;7.09;87.79;102952.34;5029356;28;20029;-76
2022/11/11 08:52:10;;;;;;;7.25;3.40;;;;;;;7.12;87.98;102955.88;5031139;28;20468;-76
2022/11/11 08:54:35;;;;;;;5.78;3.08;;;;;;;7.14;87.61;102953.31;5027971;28;20033;-76
2022/11/11 08:57:00;;;;;;;6.70;3.00;;;;;;;7.16;87.65;102951.66;5026687;28;20380;-76
2022/11/11 08:59:25;;;;;;;6.03;3.47;;;;;;;7.18;87.76;102955.16;5028273;28;20472;-76
2022/11/11 09:01:51;;;;;;;6.15;2.90;;;;;;;7.20;87.49;102958.66;5027308;28;20021;-76
2022/11/11 09:04:16;;;;;;;5.15;2.72;;;;;;;7.22;87.21;102956.97;5028731;28;20033;-76
2022/11/11 09:06:44;;;;;;;4.82;2.97;;;;;;;7.25;87.55;102956.16;5030619;28;20036;-76
2022/11/11 09:09:10;;;;;;;6.03;3.10;;;;;;;7.29;87.04;102955.41;5031541;28;20028;-76
2022/11/11 09:11:35;;;;;;;4.60;2.92;;;;;;;7.31;86.98;102945.94;5027343;28;20452;-76
2022/11/11 09:14:01;;;;;;;7.40;3.08;;;;;;;7.33;87.03;102952.03;5025370;28;20029;-77
2022/11/11 09:16:26;;;;;;;6.40;3.22;;;;;;;7.36;87.41;102957.25;5011440;28;20120;-76
2022/11/11 09:18:51;;;;;;;5.63;2.90;;;;;;;7.40;86.84;102959.09;5028630;28;20108;-76
2022/11/11 09:21:16;;;;;;;5.75;3.20;;;;;;;7.41;86.89;102958.25;5024786;28;20470;-76
2022/11/11 09:23:42;;;;;;;5.97;2.88;;;;;;;7.44;87.06;102953.13;5027077;28;20249;-76
2022/11/11 09:26:07;;;;;;;5.93;3.40;;;;;;;7.48;87.26;102956.66;5031117;28;20396;-76
2022/11/11 09:28:32;;;;;;;5.75;3.13;;;;;;;7.53;86.75;102956.75;5026978;28;20036;-76
2022/11/11 09:31:01;;;;;;;6.10;3.30;;;;;;;7.58;86.68;102960.31;5030955;28;20021;-76
2022/11/11 09:33:27;;;;;;;5.03;2.83;;;;;;;7.61;86.69;102962.97;5038428;28;20507;-76
2022/11/11 09:35:52;;;;;;;6.75;3.22;;;;;;;7.65;86.70;102950.97;5028405;28;20033;-76
2022/11/11 09:38:18;;;;;;;5.68;3.10;;;;;;;7.67;86.81;102950.16;5025896;28;20029;-77
2022/11/11 09:41:07;;;;;;;5.40;3.00;;;;;;;7.72;86.57;102964.06;5027409;28;20163;-76
2022/11/11 09:43:46;;;;;;;4.80;2.80;;;;;;;7.77;86.73;102958.97;5024425;28;20034;-76
2022/11/11 09:46:34;;;;;;;5.10;2.78;;;;;;;7.81;86.43;102962.53;5023663;28;20033;-76
2022/11/11 09:49:27;;;;;;;6.15;3.22;;;;;;;7.87;85.82;102967.81;5026332;28;20099;-76
2022/11/11 09:52:13;;;;;;;8.93;3.50;;;;;;;7.93;86.11;102965.34;5026239;28;20112;-75
2022/11/11 09:54:51;;;;;;;5.18;3.15;;;;;;;7.97;85.81;102968.84;5028414;28;20037;-76
2022/11/11 09:57:21;;;;;;;6.03;3.42;;;;;;;7.99;86.18;102968.06;5026479;28;20033;-76
2022/11/11 09:59:54;;;;;;;5.60;3.05;;;;;;;8.03;85.83;102975.03;5024860;28;20479;-76
2022/11/11 10:02:34;;;;;;;7.65;3.60;;;;;;;8.07;85.74;102967.31;5022191;28;20537;-76
2022/11/11 10:05:08;;;;;;;6.45;3.20;;;;;;;8.09;85.56;102968.22;5023079;28;20055;-76
2022/11/11 10:07:40;;;;;;;5.55;3.28;;;;;;;8.13;85.69;102960.53;5022289;28;20045;-76
2022/11/11 10:10:13;;;;;;;6.10;3.33;;;;;;;8.16;85.41;102959.75;5020285;28;20052;-76
2022/11/11 10:12:48;;;;;;;6.55;3.13;;;;;;;8.19;85.06;102971.03;5021796;28;20044;-77
2022/11/11 10:15:15;;;;;;;6.32;3.33;;;;;;;8.23;84.48;102976.28;5027570;28;20521;-76
2022/11/11 10:18:01;;;;;;;6.10;3.20;;;;;;;8.25;84.72;102970.25;5027279;28;20361;-76
2022/11/11 10:20:34;;;;;;;5.25;3.25;;;;;;;8.28;84.54;102970.31;5028806;28;20967;-76
2022/11/11 10:23:12;;;;;;;5.78;3.10;;;;;;;8.31;85.23;102972.09;5028547;28;20091;-76
2022/11/11 10:25:49;;;;;;;6.10;3.15;;;;;;;8.34;84.28;102985.13;5026116;28;20056;-76
2022/11/11 10:28:18;;;;;;;6.72;3.47;;;;;;;8.39;83.92;102982.59;5027461;28;20029;-76
2022/11/11 10:30:45;;;;;;;5.45;3.17;;;;;;;8.44;84.31;102986.16;5027575;28;20464;-76
2022/11/11 10:33:17;;;;;;;5.43;3.20;;;;;;;8.49;84.20;102979.38;5024532;28;20026;-76
2022/11/11 10:35:47;;;;;;;5.30;3.10;;;;;;;8.55;84.31;102989.84;5025410;28;20045;-76
2022/11/11 10:38:25;;;;;;;4.20;2.78;;;;;;;8.62;84.93;102978.72;5026407;28;20116;-76
2022/11/11 10:40:56;;;;;;;5.90;3.08;;;;;;;8.70;83.87;102978.88;5026046;28;20519;-76
2022/11/11 10:43:26;;;;;;;4.78;2.88;;;;;;;8.77;83.59;102969.44;5025850;28;20037;-76
2022/11/11 10:46:06;;;;;;;4.82;2.88;;;;;;;8.85;83.66;102972.16;5026179;28;20061;-76
2022/11/11 10:48:56;;;;;;;6.93;2.97;;;;;;;8.93;83.27;102970.59;5026786;28;20123;-76
2022/11/11 10:51:24;;;;;;;6.45;2.88;;;;;;;8.99;82.60;102970.66;5026948;28;20033;-76
2022/11/11 10:54:00;;;;;;;5.10;3.00;;;;;;;9.03;82.79;102962.06;5026517;28;20033;-77
2022/11/11 10:56:33;;;;;;;6.72;3.00;;;;;;;9.09;82.16;102959.56;5025131;28;20060;-76
2022/11/11 10:59:23;;;;;;;4.35;2.60;;;;;;;9.16;82.83;102962.25;5025791;28;20033;-76
2022/11/11 11:01:59;;;;;;;5.03;2.67;;;;;;;9.23;82.37;102959.75;5025343;28;20036;-76
2022/11/11 11:04:50;;;;;;;5.35;2.70;;;;;;;9.34;82.79;102962.50;5025365;28;20112;-76
2022/11/11 11:07:25;;;;;;;4.38;2.25;;;;;;;9.39;81.39;102967.78;5023938;28;20033;-76
2022/11/11 11:10:05;;;;;;;5.07;2.60;;;;;;;9.43;81.37;102961.75;5025684;28;20112;-75
2022/11/11 11:12:40;;;;;;;4.30;2.50;;;;;;;9.51;80.82;102964.44;5026328;28;20119;-77
2022/11/11 11:15:24;;;;;;;3.72;2.40;;;;;;;9.59;81.15;102964.56;5024499;28;21360;-77
2022/11/11 11:17:57;;;;;;;3.90;2.20;;;;;;;9.64;80.79;102949.91;5027067;28;20048;-76
2022/11/11 11:20:23;;;;;;;4.30;2.45;;;;;;;9.68;80.03;102949.94;5026292;28;20029;-76
2022/11/11 11:22:51;;;;;;;3.20;2.10;;;;;;;9.74;79.19;102950.88;5027784;28;20022;-76
2022/11/11 11:25:19;;;;;;;3.45;2.22;;;;;;;9.79;79.40;102941.41;5027532;28;21577;-76
2022/11/11 11:27:44;;;;;;;6.18;2.33;;;;;;;9.85;79.37;102951.88;5024586;28;20550;-75
2022/11/11 11:30:27;;;;;;;4.30;2.30;;;;;;;9.92;79.81;102955.41;5027318;28;20033;-76
2022/11/11 11:32:59;;;;;;;3.58;1.92;;;;;;;9.97;78.13;102938.13;5024611;28;20029;-76
2022/11/11 11:35:43;;;;;;;5.18;2.08;;;;;;;10.04;78.44;102939.97;5025590;28;20037;-76
2022/11/11 11:38:11;;;;;;;6.05;2.30;;;;;;;10.10;78.83;102945.19;5004512;28;20025;-76
2022/11/11 11:40:52;;;;;;;2.53;1.73;;;;;;;10.17;78.03;102940.94;5022843;28;20478;-76
2022/11/11 11:43:34;;;;;;;4.53;2.10;;;;;;;10.24;78.34;102947.09;5021932;28;20029;-76
2022/11/11 11:46:27;;;;;;;3.22;1.90;;;;;;;10.30;78.67;102945.41;5020402;28;20499;-76
2022/11/11 11:49:20;;;;;;;3.72;1.65;;;;;;;10.37;78.13;102948.94;5011089;28;20123;-76
2022/11/11 11:51:46;;;;;;;4.20;1.83;;;;;;;10.42;77.68;102949.88;5023727;28;20038;-76
2022/11/11 11:54:29;;;;;;;3.22;1.75;;;;;;;10.48;78.06;102947.34;5022339;28;20041;-76
2022/11/11 11:57:02;;;;;;;2.78;1.60;;;;;;;10.54;77.75;102943.06;5019878;28;20034;-76
2022/11/11 11:59:34;;;;;;;2.60;1.42;;;;;;;10.59;76.72;102944.81;5018891;28;20032;-76
2022/11/11 12:02:29;;;;;;;3.90;1.63;;;;;;;10.65;77.20;102937.94;5021802;28;20037;-76
2022/11/11 12:05:15;;;;;;;3.80;1.55;;;;;;;10.69;76.06;102944.88;5022272;28;20091;-76
2022/11/11 12:07:52;;;;;;;2.88;1.52;;;;;;;10.73;77.12;102944.94;5019769;28;20133;-76
2022/11/11 12:10:26;;;;;;;3.05;1.60;;;;;;;10.81;77.43;102944.09;5023475;28;22044;-77
2022/11/11 12:13:09;;;;;;;3.17;1.70;;;;;;;10.83;75.65;102939.78;5022628;28;20075;-77
2022/11/11 12:15:37;;;;;;;3.45;1.50;;;;;;;10.84;75.22;102934.59;5022327;28;20087;-76
2022/11/11 12:18:21;;;;;;;4.03;1.60;;;;;;;10.90;76.85;102926.81;5024669;28;20029;-77
2022/11/11 12:20:54;;;;;;;3.45;1.50;;;;;;;10.96;75.34;102933.78;5021898;28;20072;-76
2022/11/11 12:23:19;;;;;;;3.67;1.50;;;;;;;11.01;75.70;102923.44;5004746;28;20033;-76
2022/11/11 12:26:00;;;;;;;3.13;1.40;;;;;;;11.05;75.15;102923.44;5018980;28;20029;-78
2022/11/11 12:29:07;;;;;;;4.72;1.42;;;;;;;11.10;75.54;102907.84;5025975;28;20033;-77
2022/11/11 12:31:35;;;;;;;4.40;1.90;;;;;;;11.14;75.22;102911.31;4984365;28;20045;-77
2022/11/11 12:34:09;;;;;;;2.67;1.45;;;;;;;11.18;75.25;102903.56;5025111;28;20033;-77
2022/11/11 12:36:41;;;;;;;2.63;1.30;;;;;;;11.23;74.05;102911.38;5023169;28;20041;-77
2022/11/11 12:39:28;;;;;;;2.88;1.60;;;;;;;11.28;74.75;102907.03;5024751;28;20025;-77
2022/11/11 12:42:21;;;;;;;2.50;1.33;;;;;;;11.31;74.85;102909.66;5024766;28;20040;-77
2022/11/11 12:45:13;;;;;;;2.95;1.33;;;;;;;11.37;75.67;102906.22;5024126;28;20768;-77
2022/11/11 12:48:02;;;;;;;2.30;1.30;;;;;;;11.41;75.03;102902.75;5025655;28;20055;-77